Lee-on-the-Solent, United Kingdom
Current Conditions -  °F | °C
As of 7:20 AM on Saturday 20 Dec 2014 (Local Time) from EGHI Reporting Station
Few Clouds Few Clouds  
Wind Chill:   Ceiling: Unl
Heat Index:   Visibility: 6mi
Dew Point:   Wind: 6mph
Humidity: 81%   Direction: 250°WSW
Pressure: 30.3"   Gusts: NA
Location:  50.8°N, 1.2°W
Report Text: EGHI 200720Z 25005KT 9999 FEW048 06/03 Q1026
Loading
Personal Weather Stations






























Interactive Weather Map New forecast layout! Learn more

10-Day Weather Forecast

Advertisements
Track Severe Weather on mobile